Time;durP1;ratioP1;P1;durP2;ratioP2;P2;SDS_P1;SDS_P2;PMS_P1;PMS_P2;Temp;Humidity;BMP_temperature;BMP_pressure;BME280_temperature;BME280_humidity;BME280_pressure;Samples;Min_cycle;Max_cycle;Signal;HPM_P1;HPM_P2
2023/11/28 05:01:03;;;;;;;2.13;1.97;;;0.40;97.30;;;;;;5653291;23;20583;-87
2023/11/28 05:03:28;;;;;;;2.60;1.93;;;0.40;97.30;;;;;;4908251;29;20447;-89
2023/11/28 05:05:54;;;;;;;2.40;2.20;;;0.40;97.30;;;;;;4897709;29;20456;-82
2023/11/28 05:08:20;;;;;;;1.40;1.30;;;0.30;97.30;;;;;;4898193;29;20239;-87
2023/11/28 05:10:45;;;;;;;3.07;2.60;;;0.30;97.30;;;;;;4905578;29;20670;-85
2023/11/28 05:13:11;;;;;;;3.10;2.90;;;0.30;97.30;;;;;;4898000;29;20180;-90
2023/11/28 05:15:37;;;;;;;1.73;1.63;;;0.30;97.30;;;;;;4909779;29;20690;-87
2023/11/28 05:18:02;;;;;;;3.13;2.17;;;0.30;97.30;;;;;;4917507;29;20208;-86
2023/11/28 05:20:28;;;;;;;3.77;2.57;;;0.30;97.30;;;;;;4900132;29;20424;-85
2023/11/28 05:22:53;;;;;;;12.20;1.93;;;0.30;97.30;;;;;;4898271;29;20219;-90
2023/11/28 05:25:19;;;;;;;1.77;1.67;;;0.30;97.30;;;;;;4902840;29;20246;-88
2023/11/28 05:27:46;;;;;;;1.33;1.23;;;0.30;97.30;;;;;;4905995;29;20177;-86
2023/11/28 05:30:12;;;;;;;7.80;2.37;;;0.30;97.30;;;;;;4898768;29;20995;-87
2023/11/28 05:32:37;;;;;;;3.30;3.10;;;0.30;97.30;;;;;;4900073;29;20452;-87
2023/11/28 05:35:04;;;;;;;2.70;2.07;;;0.20;97.30;;;;;;4900000;29;20439;-87
2023/11/28 05:37:30;;;;;;;3.67;3.47;;;0.20;97.30;;;;;;4899342;29;20181;-86
2023/11/28 05:39:55;;;;;;;1.47;1.37;;;0.20;97.30;;;;;;4915486;29;20473;-87
2023/11/28 05:42:21;;;;;;;2.13;1.97;;;0.20;97.30;;;;;;4902485;29;20965;-87
2023/11/28 05:44:46;;;;;;;1.50;1.40;;;0.20;97.30;;;;;;4907021;29;20187;-92
2023/11/28 05:47:12;;;;;;;4.77;3.27;;;0.10;97.30;;;;;;4899488;29;20208;-85
2023/11/28 05:49:38;;;;;;;3.53;2.03;;;0.10;97.30;;;;;;4916371;29;20180;-86
2023/11/28 05:52:03;;;;;;;1.53;1.43;;;0.10;97.30;;;;;;4899192;29;20209;-86
2023/11/28 05:54:29;;;;;;;1.47;1.37;;;0.10;97.30;;;;;;4898836;29;20663;-88
2023/11/28 05:56:55;;;;;;;2.63;2.43;;;0.10;97.30;;;;;;4908741;29;20654;-86
2023/11/28 05:59:21;;;;;;;9.23;3.13;;;0.10;97.30;;;;;;4916334;29;20255;-84
2023/11/28 06:02:03;;;;;;;1.40;1.30;;;0.10;97.30;;;;;;4903602;29;20324;-83
2023/11/28 06:04:31;;;;;;;3.50;1.83;;;0.10;97.30;;;;;;4897417;29;20421;-87
2023/11/28 06:06:57;;;;;;;2.53;2.33;;;0.10;97.30;;;;;;4891796;29;20463;-86
2023/11/28 06:09:24;;;;;;;6.20;4.30;;;0.10;97.30;;;;;;4909908;29;20421;-84
2023/11/28 06:11:53;;;;;;;5.17;2.80;;;0.10;97.30;;;;;;4903321;29;20680;-86
2023/11/28 06:14:21;;;;;;;1.43;1.33;;;0.00;97.30;;;;;;4902993;29;20428;-83
2023/11/28 06:16:47;;;;;;;5.77;2.23;;;0.00;97.30;;;;;;4896759;29;20951;-85
2023/11/28 06:19:14;;;;;;;1.67;1.57;;;0.00;97.30;;;;;;4908341;29;20436;-87
2023/11/28 06:21:39;;;;;;;27.93;3.10;;;0.00;97.30;;;;;;4911952;29;20201;-86
2023/11/28 06:24:06;;;;;;;4.93;4.67;;;0.00;97.30;;;;;;4911792;29;20458;-86
2023/11/28 06:26:32;;;;;;;20.23;3.83;;;0.00;97.30;;;;;;4910786;29;20211;-86
2023/11/28 06:28:57;;;;;;;8.70;3.00;;;0.00;97.30;;;;;;4906362;29;20999;-86
2023/11/28 06:31:23;;;;;;;2.70;2.50;;;0.00;97.30;;;;;;4911745;29;20753;-86
2023/11/28 06:33:49;;;;;;;1.70;1.60;;;0.00;97.30;;;;;;4905601;29;20184;-85
2023/11/28 06:36:15;;;;;;;3.13;2.50;;;-0.10;97.30;;;;;;4911721;29;20196;-86
2023/11/28 06:38:41;;;;;;;1.87;1.20;;;0.00;97.30;;;;;;4895620;29;20908;-86
2023/11/28 06:41:07;;;;;;;2.07;1.93;;;0.00;97.30;;;;;;4895930;29;20982;-85
2023/11/28 06:43:33;;;;;;;3.70;1.40;;;0.00;97.30;;;;;;4902001;29;20481;-87
2023/11/28 06:46:00;;;;;;;2.93;2.73;;;-0.10;97.30;;;;;;4904739;29;20553;-85
2023/11/28 06:48:26;;;;;;;1.93;1.80;;;-0.10;97.30;;;;;;4913075;29;20671;-86
2023/11/28 06:50:55;;;;;;;8.50;2.20;;;-0.10;97.30;;;;;;4901507;29;20445;-86
2023/11/28 06:53:21;;;;;;;1.40;1.30;;;-0.10;97.30;;;;;;4911497;29;20431;-86
2023/11/28 06:55:46;;;;;;;2.83;2.60;;;-0.10;97.30;;;;;;4896859;29;20421;-86
2023/11/28 06:58:12;;;;;;;1.77;1.67;;;-0.10;97.30;;;;;;4900543;29;20221;-86
2023/11/28 07:00:37;;;;;;;4.33;2.30;;;-0.10;97.30;;;;;;4911270;29;20208;-85
2023/11/28 07:03:03;;;;;;;2.63;2.03;;;-0.10;97.30;;;;;;4925199;29;20292;-86
2023/11/28 07:05:29;;;;;;;3.57;3.20;;;-0.10;97.30;;;;;;4924462;29;20263;-87
2023/11/28 07:07:56;;;;;;;2.50;2.33;;;0.00;97.30;;;;;;4922154;29;20459;-86
2023/11/28 07:10:22;;;;;;;1.53;1.43;;;-0.10;97.30;;;;;;4906367;29;20199;-85
2023/11/28 07:12:48;;;;;;;1.67;1.57;;;-0.10;97.30;;;;;;4914298;29;20506;-85
2023/11/28 07:15:14;;;;;;;5.87;2.60;;;-0.10;97.30;;;;;;4927514;29;20176;-87
2023/11/28 07:17:40;;;;;;;1.43;1.33;;;-0.10;97.30;;;;;;4912132;29;20428;-85
2023/11/28 07:20:06;;;;;;;1.97;1.87;;;-0.10;97.30;;;;;;4915567;29;20180;-86
2023/11/28 07:22:32;;;;;;;4.50;2.27;;;-0.10;97.30;;;;;;4912534;29;20907;-85
2023/11/28 07:24:58;;;;;;;3.03;1.97;;;-0.10;97.30;;;;;;4925266;29;20503;-88
2023/11/28 07:27:24;;;;;;;2.87;2.13;;;-0.10;97.30;;;;;;4915893;29;20420;-88
2023/11/28 07:29:50;;;;;;;2.93;2.23;;;-0.10;97.30;;;;;;4916249;29;20514;-85
2023/11/28 07:32:15;;;;;;;1.10;1.00;;;-0.10;97.30;;;;;;4920596;29;20366;-86
2023/11/28 07:34:41;;;;;;;1.20;1.10;;;-0.10;97.30;;;;;;4896605;29;21007;-87
2023/11/28 07:37:06;;;;;;;2.90;2.30;;;-0.10;97.30;;;;;;4898282;29;20200;-86
2023/11/28 07:39:32;;;;;;;1.13;1.03;;;-0.20;97.30;;;;;;4895691;29;20192;-87
2023/11/28 07:41:57;;;;;;;1.23;1.13;;;-0.20;97.30;;;;;;4915620;29;20346;-86
2023/11/28 07:44:24;;;;;;;1.60;1.50;;;-0.20;97.30;;;;;;4923217;29;20188;-91
2023/11/28 07:46:49;;;;;;;2.93;2.23;;;-0.20;97.30;;;;;;4910864;29;20302;-85
2023/11/28 07:49:15;;;;;;;2.60;2.07;;;-0.20;97.30;;;;;;4916796;29;20437;-87
2023/11/28 07:51:40;;;;;;;6.73;1.97;;;-0.20;97.30;;;;;;4902375;29;20216;-86
2023/11/28 07:54:06;;;;;;;2.70;2.20;;;-0.20;97.30;;;;;;4901013;29;20267;-87
2023/11/28 07:56:33;;;;;;;1.40;1.30;;;-0.20;97.30;;;;;;4900375;29;20189;-89
2023/11/28 07:58:59;;;;;;;1.83;1.30;;;-0.20;97.30;;;;;;4901158;29;20187;-82
2023/11/28 08:01:24;;;;;;;1.50;1.40;;;-0.20;97.30;;;;;;4917413;29;20826;-87
2023/11/28 08:03:50;;;;;;;1.40;1.30;;;-0.20;97.30;;;;;;4917495;29;20740;-85
2023/11/28 08:06:18;;;;;;;1.20;1.10;;;-0.20;97.30;;;;;;4918520;29;20203;-86
2023/11/28 08:08:47;;;;;;;1.30;1.20;;;-0.20;97.30;;;;;;4918968;29;20195;-86
2023/11/28 08:11:12;;;;;;;4.03;1.50;;;-0.20;97.30;;;;;;4919733;29;20456;-85
2023/11/28 08:13:39;;;;;;;2.10;1.50;;;-0.20;97.30;;;;;;4919070;29;20412;-87
2023/11/28 08:16:05;;;;;;;1.50;1.40;;;-0.20;97.30;;;;;;4906974;29;20200;-85
2023/11/28 08:18:31;;;;;;;4.53;3.47;;;-0.20;97.30;;;;;;4907960;29;20435;-84
2023/11/28 08:20:56;;;;;;;3.03;2.83;;;-0.20;97.30;;;;;;4900707;29;20826;-89
2023/11/28 08:23:22;;;;;;;3.33;2.20;;;-0.20;97.30;;;;;;4917615;29;20674;-85
2023/11/28 08:25:49;;;;;;;1.50;1.40;;;-0.20;97.30;;;;;;4900244;29;20586;-86
2023/11/28 08:28:15;;;;;;;2.70;2.37;;;-0.20;97.30;;;;;;4917256;29;20199;-85
2023/11/28 08:30:41;;;;;;;1.20;1.10;;;-0.20;97.30;;;;;;4917083;29;20444;-85
2023/11/28 08:33:06;;;;;;;1.50;1.40;;;-0.20;97.30;;;;;;4915827;29;20942;-85
2023/11/28 08:35:32;;;;;;;3.00;2.80;;;-0.20;97.30;;;;;;4914868;29;20444;-85
2023/11/28 08:37:58;;;;;;;1.50;1.40;;;-0.20;97.30;;;;;;4898949;29;20195;-87
2023/11/28 08:40:23;;;;;;;2.17;1.13;;;-0.20;97.30;;;;;;4903254;29;20188;-86
2023/11/28 08:42:48;;;;;;;1.67;1.57;;;-0.20;97.30;;;;;;4900830;29;20495;-85
2023/11/28 08:45:14;;;;;;;13.13;1.30;;;-0.20;97.30;;;;;;4917611;29;20185;-86
2023/11/28 08:47:40;;;;;;;1.10;1.00;;;-0.20;97.30;;;;;;4915079;29;20185;-86
2023/11/28 08:50:06;;;;;;;2.07;1.93;;;-0.20;97.30;;;;;;4917107;29;20518;-86
2023/11/28 08:52:32;;;;;;;1.10;1.00;;;-0.20;97.30;;;;;;4899202;29;20450;-86
2023/11/28 08:54:59;;;;;;;2.33;2.17;;;-0.10;97.30;;;;;;4892614;29;20429;-88
2023/11/28 08:57:33;;;;;;;1.13;1.03;;;-0.10;97.30;;;;;;4900143;29;20440;-87
2023/11/28 09:00:00;;;;;;;1.20;1.10;;;-0.10;97.30;;;;;;4914405;29;20527;-86
2023/11/28 09:02:26;;;;;;;1.53;1.43;;;-0.10;97.30;;;;;;4916155;29;20528;-85
2023/11/28 09:04:51;;;;;;;4.00;2.07;;;-0.10;97.30;;;;;;4899582;29;20435;-87
2023/11/28 09:07:17;;;;;;;1.10;1.00;;;0.00;97.30;;;;;;4899506;29;20216;-87
2023/11/28 09:09:42;;;;;;;1.20;1.10;;;0.00;97.30;;;;;;4899444;29;20240;-86
2023/11/28 09:12:08;;;;;;;1.63;1.53;;;0.00;97.30;;;;;;4915936;29;20617;-86
2023/11/28 09:14:33;;;;;;;1.37;1.30;;;0.00;97.30;;;;;;4915845;29;20739;-86
2023/11/28 09:16:59;;;;;;;1.37;1.27;;;0.00;97.30;;;;;;4900871;29;20189;-86
2023/11/28 09:19:24;;;;;;;2.60;1.57;;;0.00;97.30;;;;;;4903294;29;20192;-86
2023/11/28 09:21:50;;;;;;;1.30;1.20;;;0.00;97.30;;;;;;4900128;29;20223;-87
2023/11/28 09:24:15;;;;;;;1.20;1.10;;;0.00;97.30;;;;;;4901757;29;20281;-87
2023/11/28 09:26:41;;;;;;;6.00;2.00;;;0.00;97.30;;;;;;4906036;29;20220;-84
2023/11/28 09:29:06;;;;;;;1.47;1.37;;;0.00;97.30;;;;;;4899490;29;20193;-86
2023/11/28 09:31:32;;;;;;;1.20;1.10;;;-0.10;97.30;;;;;;4904499;29;20655;-86
2023/11/28 09:33:58;;;;;;;2.93;1.33;;;-0.10;97.30;;;;;;4898621;29;20693;-87
2023/11/28 09:36:23;;;;;;;1.37;1.27;;;0.00;97.30;;;;;;4905879;29;20209;-86
2023/11/28 09:38:49;;;;;;;1.70;1.60;;;-0.10;97.30;;;;;;4915437;29;20279;-86
2023/11/28 09:41:25;;;;;;;2.03;1.47;;;-0.10;97.30;;;;;;4915644;29;20204;-86
2023/11/28 09:43:51;;;;;;;2.33;2.13;;;-0.10;97.30;;;;;;4905116;29;20499;-86
2023/11/28 09:46:20;;;;;;;3.70;3.50;;;-0.10;97.30;;;;;;4906093;29;20464;-87
2023/11/28 09:48:49;;;;;;;2.03;1.80;;;-0.20;97.30;;;;;;4900380;29;20432;-86
2023/11/28 09:51:15;;;;;;;6.40;2.43;;;-0.20;97.30;;;;;;4905728;29;20453;-87
2023/11/28 09:53:42;;;;;;;13.87;5.47;;;-0.20;97.30;;;;;;4899340;29;21109;-89
2023/11/28 09:56:10;;;;;;;2.40;1.40;;;-0.20;97.30;;;;;;4899528;29;20511;-86
2023/11/28 09:58:36;;;;;;;2.33;2.13;;;-0.30;97.30;;;;;;4902758;29;20472;-86
2023/11/28 10:01:06;;;;;;;2.80;2.60;;;-0.30;97.30;;;;;;4895358;29;20584;-85
2023/11/28 10:03:34;;;;;;;2.13;1.97;;;-0.30;97.30;;;;;;4895161;29;20189;-85
2023/11/28 10:06:00;;;;;;;4.53;2.33;;;-0.30;97.30;;;;;;4894970;29;20524;-85
2023/11/28 10:08:26;;;;;;;2.40;2.20;;;-0.30;97.30;;;;;;4895001;29;20518;-86
2023/11/28 10:10:53;;;;;;;1.57;1.47;;;-0.30;97.30;;;;;;4910587;29;20209;-87
2023/11/28 10:13:19;;;;;;;2.47;2.27;;;-0.30;97.30;;;;;;4892071;29;20470;-85
2023/11/28 10:15:49;;;;;;;2.67;2.10;;;-0.40;97.30;;;;;;4895226;29;20932;-86
2023/11/28 10:18:19;;;;;;;2.23;2.03;;;-0.40;97.30;;;;;;4895309;29;20473;-86
2023/11/28 10:20:45;;;;;;;2.50;2.30;;;-0.40;97.30;;;;;;4894832;29;20975;-86
2023/11/28 10:23:14;;;;;;;2.67;2.47;;;-0.30;97.30;;;;;;4895464;29;20441;-86
2023/11/28 10:25:40;;;;;;;1.60;1.50;;;-0.30;97.30;;;;;;4894998;29;20211;-87
2023/11/28 10:28:08;;;;;;;2.33;2.13;;;-0.30;97.30;;;;;;4896173;29;20425;-85
2023/11/28 10:30:36;;;;;;;3.33;2.10;;;-0.30;97.30;;;;;;4895001;29;20265;-86
2023/11/28 10:33:02;;;;;;;6.33;3.30;;;-0.30;97.30;;;;;;4894944;29;20958;-85
2023/11/28 10:35:39;;;;;;;2.07;1.93;;;-0.30;97.30;;;;;;4895006;29;20433;-86
2023/11/28 10:38:04;;;;;;;1.40;1.30;;;-0.20;97.30;;;;;;4895055;29;20192;-86
2023/11/28 10:40:30;;;;;;;1.40;1.30;;;-0.20;97.30;;;;;;4895004;29;20497;-86
2023/11/28 10:42:55;;;;;;;2.63;2.47;;;-0.20;97.30;;;;;;4893859;29;20189;-86
2023/11/28 10:45:21;;;;;;;7.10;5.33;;;-0.20;97.30;;;;;;4891092;29;20235;-87
2023/11/28 10:47:47;;;;;;;8.03;3.20;;;-0.20;97.30;;;;;;4894240;29;20249;-85
2023/11/28 10:50:16;;;;;;;2.63;2.43;;;-0.20;97.30;;;;;;4894335;29;20855;-85
2023/11/28 10:52:44;;;;;;;3.03;2.37;;;-0.20;97.30;;;;;;4894187;29;20305;-86
2023/11/28 10:55:11;;;;;;;1.53;1.43;;;-0.20;97.30;;;;;;4895481;29;20492;-86
2023/11/28 10:57:53;;;;;;;1.80;1.70;;;-0.20;97.30;;;;;;4895536;29;20421;-86
2023/11/28 11:00:24;;;;;;;2.10;1.87;;;-0.20;97.30;;;;;;4890047;29;20536;-87
2023/11/28 11:02:51;;;;;;;1.37;1.27;;;-0.30;97.30;;;;;;4897373;29;20502;-86
2023/11/28 11:05:17;;;;;;;3.20;3.00;;;-0.30;97.30;;;;;;4913731;29;20528;-88
2023/11/28 11:07:44;;;;;;;1.30;1.20;;;-0.30;97.30;;;;;;4898402;29;20429;-87
2023/11/28 11:10:11;;;;;;;2.73;1.40;;;-0.30;97.30;;;;;;4898250;29;20424;-86
2023/11/28 11:12:39;;;;;;;1.30;1.20;;;-0.30;97.30;;;;;;4894584;29;20489;-86
2023/11/28 11:15:15;;;;;;;1.60;1.50;;;-0.30;97.30;;;;;;4897632;29;20433;-86
2023/11/28 11:18:00;;;;;;;1.93;1.83;;;-0.30;97.30;;;;;;4898655;29;20854;-86
2023/11/28 11:20:27;;;;;;;1.70;1.60;;;-0.30;97.30;;;;;;4909328;29;20435;-88
2023/11/28 11:22:59;;;;;;;2.43;1.77;;;-0.30;97.30;;;;;;4898705;29;20417;-87
2023/11/28 11:25:39;;;;;;;3.00;2.80;;;-0.20;97.30;;;;;;4898732;29;20476;-88
2023/11/28 11:28:04;;;;;;;1.20;1.10;;;-0.20;97.30;;;;;;4897540;29;20830;-86
2023/11/28 11:30:37;;;;;;;1.60;1.50;;;-0.20;97.30;;;;;;4898403;29;20416;-86
2023/11/28 11:33:08;;;;;;;1.20;1.10;;;-0.20;97.30;;;;;;4898434;29;20173;-86
2023/11/28 11:36:07;;;;;;;2.23;2.03;;;-0.20;97.30;;;;;;4898776;29;20409;-86
2023/11/28 11:38:34;;;;;;;2.80;1.90;;;-0.20;97.30;;;;;;4907205;29;20426;-85
2023/11/28 11:41:02;;;;;;;1.87;1.73;;;-0.20;97.30;;;;;;4897524;29;20828;-85
2023/11/28 11:43:28;;;;;;;3.63;3.10;;;-0.20;97.30;;;;;;4897519;29;20429;-86
2023/11/28 11:46:04;;;;;;;1.97;1.87;;;-0.20;97.30;;;;;;4896881;29;20481;-87
2023/11/28 11:48:30;;;;;;;1.40;1.30;;;-0.20;97.30;;;;;;4897033;29;20453;-86
2023/11/28 11:50:56;;;;;;;1.83;1.73;;;-0.20;97.30;;;;;;4893993;29;20454;-86
2023/11/28 11:53:23;;;;;;;3.10;2.40;;;-0.20;97.30;;;;;;4892477;29;20796;-87
2023/11/28 11:55:48;;;;;;;1.80;1.70;;;-0.20;97.30;;;;;;4896987;29;20193;-85
2023/11/28 11:58:15;;;;;;;4.87;3.00;;;-0.10;97.30;;;;;;4896801;29;21031;-85
2023/11/28 12:00:41;;;;;;;5.93;2.03;;;-0.10;97.30;;;;;;4897695;29;20241;-87
2023/11/28 12:03:10;;;;;;;4.53;3.70;;;-0.10;97.30;;;;;;4905853;29;20444;-87
2023/11/28 12:05:36;;;;;;;7.10;2.23;;;-0.10;97.30;;;;;;4899615;29;20476;-87
2023/11/28 12:08:03;;;;;;;4.87;3.27;;;-0.10;97.30;;;;;;4901578;29;20459;-85
2023/11/28 12:10:29;;;;;;;2.17;1.67;;;-0.10;97.30;;;;;;4917104;29;20180;-86
2023/11/28 12:12:55;;;;;;;4.43;3.20;;;0.00;97.30;;;;;;4899109;29;20939;-87
2023/11/28 12:15:21;;;;;;;2.73;2.43;;;0.00;97.30;;;;;;4905621;29;20432;-85
2023/11/28 12:17:47;;;;;;;1.30;1.20;;;0.10;97.30;;;;;;4916725;29;20180;-85
2023/11/28 12:20:13;;;;;;;1.60;1.50;;;0.10;97.30;;;;;;4896307;29;20559;-87
2023/11/28 12:22:42;;;;;;;2.00;1.87;;;0.10;97.30;;;;;;4916549;29;20204;-86
2023/11/28 12:25:18;;;;;;;7.83;3.80;;;0.10;97.30;;;;;;4899177;29;20421;-86
2023/11/28 12:27:44;;;;;;;1.20;1.10;;;0.20;97.30;;;;;;4903708;29;20420;-87
2023/11/28 12:30:11;;;;;;;10.40;3.80;;;0.20;97.30;;;;;;4901613;29;20427;-86
2023/11/28 12:32:37;;;;;;;2.57;2.40;;;0.30;97.30;;;;;;4901837;29;20460;-86
2023/11/28 12:35:05;;;;;;;3.03;2.83;;;0.30;97.30;;;;;;4915743;29;20529;-86
2023/11/28 12:37:30;;;;;;;5.90;2.43;;;0.30;97.30;;;;;;4904498;29;20189;-86
2023/11/28 12:39:56;;;;;;;1.30;1.20;;;0.30;97.30;;;;;;4909527;29;20440;-86
2023/11/28 12:42:25;;;;;;;6.63;2.10;;;0.30;97.30;;;;;;4900964;29;20299;-87
2023/11/28 12:44:51;;;;;;;2.27;2.07;;;0.30;97.30;;;;;;4907164;29;20838;-86
2023/11/28 12:47:17;;;;;;;1.70;1.60;;;0.30;97.30;;;;;;4901513;29;20476;-86
2023/11/28 12:49:42;;;;;;;2.80;2.60;;;0.30;97.30;;;;;;4898992;29;20189;-87
2023/11/28 12:52:10;;;;;;;3.90;1.80;;;0.30;97.30;;;;;;4909879;29;20235;-86
2023/11/28 12:54:40;;;;;;;1.77;1.67;;;0.30;97.30;;;;;;4904491;29;20219;-87
2023/11/28 12:57:06;;;;;;;2.77;1.97;;;0.30;97.30;;;;;;4904273;29;20492;-88
2023/11/28 12:59:31;;;;;;;9.10;3.73;;;0.40;97.30;;;;;;4907395;29;20433;-87
2023/11/28 13:01:57;;;;;;;2.90;2.70;;;0.40;97.30;;;;;;4903656;29;20608;-86
2023/11/28 13:04:22;;;;;;;1.60;1.50;;;0.40;97.30;;;;;;4904605;29;20251;-87
2023/11/28 13:06:50;;;;;;;1.53;1.43;;;0.40;97.30;;;;;;4898931;29;20208;-87
2023/11/28 13:09:15;;;;;;;1.63;1.53;;;0.40;97.30;;;;;;4901371;29;20271;-87
2023/11/28 13:11:41;;;;;;;1.77;1.67;;;0.30;97.30;;;;;;4904704;29;20543;-85
2023/11/28 13:14:06;;;;;;;3.70;3.47;;;0.30;97.30;;;;;;4902957;29;20208;-86
2023/11/28 13:16:32;;;;;;;1.43;1.33;;;0.20;97.30;;;;;;4904058;29;20608;-87
2023/11/28 13:18:59;;;;;;;1.50;1.40;;;0.20;97.30;;;;;;4903779;29;20647;-87
2023/11/28 13:21:24;;;;;;;3.57;2.73;;;0.20;97.30;;;;;;4915543;29;20216;-87
2023/11/28 13:23:54;;;;;;;7.50;1.63;;;0.20;97.30;;;;;;4897990;29;20496;-87
2023/11/28 13:26:19;;;;;;;3.40;3.20;;;0.30;97.30;;;;;;4890651;29;20209;-87
2023/11/28 13:28:45;;;;;;;1.30;1.20;;;0.40;97.30;;;;;;4898776;29;20438;-86
2023/11/28 13:31:10;;;;;;;3.23;2.53;;;0.30;97.30;;;;;;4903859;29;20212;-86
2023/11/28 13:33:43;;;;;;;3.07;2.87;;;0.30;97.30;;;;;;4915507;29;20537;-88
2023/11/28 13:36:10;;;;;;;2.27;2.07;;;0.20;97.30;;;;;;4907560;29;20180;-87
2023/11/28 13:38:36;;;;;;;2.37;2.17;;;0.20;97.30;;;;;;4903413;29;20800;-86
2023/11/28 13:41:02;;;;;;;3.70;2.53;;;0.20;97.30;;;;;;4901218;29;20448;-85
2023/11/28 13:43:27;;;;;;;2.40;2.23;;;0.10;97.30;;;;;;4902748;29;20549;-86
2023/11/28 13:45:54;;;;;;;5.00;3.37;;;0.10;97.30;;;;;;4899317;29;20464;-87
2023/11/28 13:48:21;;;;;;;3.63;2.30;;;0.00;97.30;;;;;;4905989;29;20545;-85
2023/11/28 13:50:46;;;;;;;2.23;2.03;;;0.00;97.30;;;;;;4901689;29;21062;-86
2023/11/28 13:53:12;;;;;;;6.17;2.57;;;0.00;97.30;;;;;;4900910;29;20507;-85
2023/11/28 13:55:40;;;;;;;2.23;2.03;;;-0.10;97.30;;;;;;4898231;29;20679;-88
2023/11/28 13:58:06;;;;;;;2.80;2.27;;;-0.10;97.30;;;;;;4902531;29;20192;-86
2023/11/28 14:00:32;;;;;;;1.30;1.20;;;0.00;97.30;;;;;;4897969;29;20433;-86
2023/11/28 14:02:58;;;;;;;1.70;1.60;;;-0.10;97.30;;;;;;4900736;29;20730;-86
2023/11/28 14:05:24;;;;;;;2.43;1.67;;;-0.10;97.30;;;;;;4901563;29;20192;-85
2023/11/28 14:07:49;;;;;;;2.50;2.30;;;-0.10;97.30;;;;;;4914895;29;20429;-83
2023/11/28 14:10:15;;;;;;;9.73;2.10;;;-0.10;97.30;;;;;;4899033;29;20427;-80
2023/11/28 14:12:40;;;;;;;1.67;1.57;;;-0.20;97.30;;;;;;4902867;29;20294;-86
2023/11/28 14:15:07;;;;;;;1.53;1.43;;;-0.20;97.30;;;;;;4897652;29;20251;-87
2023/11/28 14:17:33;;;;;;;3.07;2.13;;;-0.20;97.30;;;;;;4897735;29;20188;-84
2023/11/28 14:19:58;;;;;;;1.97;1.53;;;-0.20;97.30;;;;;;4901743;29;20412;-89
2023/11/28 14:22:26;;;;;;;3.33;3.13;;;-0.20;97.30;;;;;;4898091;29;20476;-86
2023/11/28 14:24:52;;;;;;;7.50;1.43;;;-0.20;97.30;;;;;;4915318;29;20184;-85
2023/11/28 14:27:18;;;;;;;3.73;3.13;;;-0.20;97.30;;;;;;4901201;29;20468;-86
2023/11/28 14:29:44;;;;;;;1.10;1.00;;;-0.20;97.30;;;;;;4914822;29;20491;-85
2023/11/28 14:32:10;;;;;;;1.20;1.10;;;-0.20;97.30;;;;;;4897769;29;20535;-86
2023/11/28 14:34:35;;;;;;;7.00;3.93;;;-0.20;97.30;;;;;;4907795;29;20184;-85
2023/11/28 14:37:01;;;;;;;1.53;1.43;;;-0.20;97.30;;;;;;4901379;29;20420;-86
2023/11/28 14:39:26;;;;;;;1.43;1.27;;;-0.30;97.30;;;;;;4918452;29;20176;-86
2023/11/28 14:41:52;;;;;;;5.13;2.40;;;-0.30;97.30;;;;;;4918303;29;20275;-86
2023/11/28 14:44:18;;;;;;;6.00;1.60;;;-0.30;97.30;;;;;;4918619;29;20195;-87
2023/11/28 14:46:43;;;;;;;3.13;2.93;;;-0.30;97.30;;;;;;4901597;29;20445;-86
2023/11/28 14:49:09;;;;;;;2.03;1.90;;;-0.30;97.30;;;;;;4901634;29;20651;-86
2023/11/28 14:51:36;;;;;;;2.13;1.97;;;-0.30;97.30;;;;;;4901807;29;20204;-86
2023/11/28 14:54:02;;;;;;;1.10;1.00;;;-0.30;97.30;;;;;;4901113;29;20931;-86
2023/11/28 14:56:28;;;;;;;1.20;1.10;;;-0.40;97.30;;;;;;4906077;29;20452;-86
2023/11/28 14:58:54;;;;;;;7.63;3.13;;;-0.40;97.30;;;;;;4900456;29;20706;-85
2023/11/28 15:01:22;;;;;;;2.70;1.57;;;-0.40;97.30;;;;;;4901013;29;20233;-86
2023/11/28 15:03:47;;;;;;;1.73;1.60;;;-0.50;97.30;;;;;;4899251;29;20457;-85
2023/11/28 15:06:13;;;;;;;3.30;1.77;;;-0.50;97.30;;;;;;4911646;29;21019;-88
2023/11/28 15:08:39;;;;;;;1.37;1.27;;;-0.50;97.30;;;;;;4926487;29;20192;-87
2023/11/28 15:11:05;;;;;;;1.67;1.57;;;-0.50;97.30;;;;;;4910901;29;20229;-86
2023/11/28 15:16:15;;;;;;;13.73;2.60;;;-0.50;97.30;;;;;;4909615;29;20224;-84
2023/11/28 15:18:41;;;;;;;1.43;1.33;;;-0.50;97.30;;;;;;4909118;29;20433;-85
2023/11/28 15:21:07;;;;;;;1.60;1.50;;;-0.50;97.30;;;;;;4908076;29;20223;-87
2023/11/28 15:23:33;;;;;;;2.50;2.30;;;-0.60;97.30;;;;;;4909183;29;20436;-86
2023/11/28 15:25:59;;;;;;;1.70;1.60;;;-0.50;97.30;;;;;;4910267;29;20472;-86
2023/11/28 15:28:24;;;;;;;2.33;2.13;;;-0.50;97.30;;;;;;4908762;29;20229;-84
2023/11/28 15:30:51;;;;;;;1.30;1.20;;;-0.50;97.30;;;;;;4908563;29;20214;-87
2023/11/28 15:33:17;;;;;;;1.57;1.30;;;-0.50;97.30;;;;;;4902689;29;20212;-85
2023/11/28 15:35:43;;;;;;;1.30;1.20;;;-0.50;97.30;;;;;;4899292;29;20429;-85
2023/11/28 15:38:09;;;;;;;2.20;1.77;;;-0.60;97.30;;;;;;4899315;29;20430;-86
2023/11/28 15:40:34;;;;;;;1.10;1.00;;;-0.60;97.30;;;;;;4899538;29;20501;-85
2023/11/28 15:43:01;;;;;;;1.33;1.23;;;-0.60;97.30;;;;;;4900800;29;20185;-85
2023/11/28 15:45:27;;;;;;;1.20;1.10;;;-0.70;97.30;;;;;;4899010;29;21107;-85
2023/11/28 15:47:53;;;;;;;1.13;1.03;;;-0.70;97.30;;;;;;4897431;29;20434;-85
2023/11/28 15:50:18;;;;;;;1.57;1.47;;;-0.80;97.30;;;;;;4898057;29;20220;-85
2023/11/28 15:52:44;;;;;;;2.63;2.07;;;-0.80;97.30;;;;;;4897771;29;20233;-85
2023/11/28 15:55:10;;;;;;;1.83;1.73;;;-0.80;97.30;;;;;;4898089;29;20200;-85
2023/11/28 15:57:35;;;;;;;1.80;1.70;;;-0.80;97.30;;;;;;4902108;29;20305;-87
2023/11/28 16:00:03;;;;;;;1.63;1.27;;;-0.80;97.30;;;;;;4900340;29;20228;-86
2023/11/28 16:02:32;;;;;;;1.30;1.20;;;-0.80;97.30;;;;;;4900358;29;20229;-85
2023/11/28 16:05:01;;;;;;;2.27;2.07;;;-0.90;97.30;;;;;;4905334;29;20433;-85
2023/11/28 16:07:27;;;;;;;4.00;3.00;;;-0.90;97.30;;;;;;4905959;29;20480;-85
2023/11/28 16:09:53;;;;;;;5.90;1.50;;;-0.90;97.30;;;;;;4905957;29;20433;-85
2023/11/28 16:12:20;;;;;;;3.67;1.83;;;-1.00;97.30;;;;;;4906370;29;20958;-85
2023/11/28 16:14:45;;;;;;;1.40;1.30;;;-1.00;97.30;;;;;;4909267;29;20964;-85
2023/11/28 16:17:11;;;;;;;1.87;1.77;;;-1.00;97.30;;;;;;4903262;29;20521;-86
2023/11/28 16:19:36;;;;;;;1.30;1.20;;;-1.00;97.30;;;;;;4901512;29;20197;-86
2023/11/28 16:22:04;;;;;;;5.77;1.63;;;-1.00;97.30;;;;;;4904540;29;20240;-86
2023/11/28 16:24:30;;;;;;;1.20;1.10;;;-1.00;97.30;;;;;;4905220;29;20189;-84
2023/11/28 16:26:56;;;;;;;1.60;1.50;;;-1.10;97.30;;;;;;4904048;29;20849;-85
2023/11/28 16:29:22;;;;;;;1.10;1.00;;;-1.10;97.30;;;;;;4906890;29;20188;-86
2023/11/28 16:31:48;;;;;;;1.20;1.10;;;-1.10;97.30;;;;;;4907485;29;20315;-86
2023/11/28 16:34:14;;;;;;;1.70;1.57;;;-1.10;97.30;;;;;;4904121;29;20928;-85
2023/11/28 16:36:43;;;;;;;2.60;1.83;;;-1.10;97.30;;;;;;4902931;29;20213;-86
2023/11/28 16:39:10;;;;;;;1.30;1.20;;;-1.10;97.30;;;;;;4905969;29;20261;-81
2023/11/28 16:41:36;;;;;;;1.47;1.47;;;-1.10;97.30;;;;;;4906080;29;20477;-86
2023/11/28 16:44:03;;;;;;;1.50;1.40;;;-1.10;97.30;;;;;;4911940;29;20440;-86
2023/11/28 16:46:28;;;;;;;1.37;1.27;;;-1.10;97.30;;;;;;4919630;29;20483;-89
2023/11/28 16:48:54;;;;;;;1.47;1.37;;;-1.10;97.30;;;;;;4917386;29;20457;-86
2023/11/28 16:51:21;;;;;;;1.20;1.10;;;-1.10;97.30;;;;;;4902650;29;20689;-84
2023/11/28 16:53:48;;;;;;;1.17;1.07;;;-1.10;97.30;;;;;;4904588;29;20255;-84
2023/11/28 16:56:16;;;;;;;1.27;1.17;;;-1.10;97.30;;;;;;4903738;29;20437;-87
2023/11/28 16:58:42;;;;;;;1.30;1.20;;;-1.10;97.30;;;;;;4903442;29;20444;-86
2023/11/28 17:01:08;;;;;;;4.10;1.30;;;-1.10;97.30;;;;;;4902538;29;20473;-84
2023/11/28 17:03:34;;;;;;;3.30;3.10;;;-1.10;97.30;;;;;;4899105;29;20445;-82
2023/11/28 17:06:00;;;;;;;1.63;1.37;;;-1.00;97.30;;;;;;4907082;29;20208;-86
2023/11/28 17:08:28;;;;;;;1.70;1.60;;;-1.00;97.30;;;;;;4903389;29;20178;-86
2023/11/28 17:10:54;;;;;;;1.60;1.50;;;-1.00;97.30;;;;;;4902309;29;20477;-85
2023/11/28 17:13:20;;;;;;;1.10;1.00;;;-0.90;97.30;;;;;;4906330;29;20456;-86
2023/11/28 17:15:46;;;;;;;2.83;1.47;;;-0.90;97.30;;;;;;4903240;29;20923;-86
2023/11/28 17:18:11;;;;;;;1.00;0.90;;;-0.90;97.30;;;;;;4900327;29;20440;-86
2023/11/28 17:20:37;;;;;;;1.97;1.87;;;-0.90;97.30;;;;;;4904515;29;20181;-84
2023/11/28 17:23:03;;;;;;;1.43;1.33;;;-0.80;97.30;;;;;;4899481;29;20435;-86
2023/11/28 17:25:28;;;;;;;1.20;1.10;;;-0.80;97.30;;;;;;4901106;29;20196;-86
2023/11/28 17:27:54;;;;;;;1.30;1.20;;;-0.80;97.30;;;;;;4902842;29;20178;-86
2023/11/28 17:30:20;;;;;;;1.00;0.90;;;-0.80;97.30;;;;;;4902982;29;20252;-86
2023/11/28 17:32:45;;;;;;;5.03;1.73;;;-0.80;97.30;;;;;;4902867;29;20750;-86
2023/11/28 17:35:11;;;;;;;1.63;1.30;;;-0.80;97.30;;;;;;4898219;29;20195;-85
2023/11/28 17:37:36;;;;;;;1.10;1.00;;;-0.80;97.30;;;;;;4902026;29;20594;-88
2023/11/28 17:40:06;;;;;;;1.63;1.53;;;-0.80;97.30;;;;;;4905525;29;20189;-85
2023/11/28 17:42:35;;;;;;;7.17;2.30;;;-0.80;97.30;;;;;;4902200;29;20221;-84
2023/11/28 17:45:00;;;;;;;1.50;1.40;;;-0.80;97.30;;;;;;4902856;29;20429;-85
2023/11/28 17:47:28;;;;;;;1.10;1.00;;;-0.80;97.30;;;;;;4902162;29;20466;-87
2023/11/28 17:49:55;;;;;;;1.27;1.17;;;-0.80;97.30;;;;;;4907220;29;20275;-85